createdAt,value
2023-01-18T00:00:48.184Z,6.50
2023-01-18T00:03:14.975Z,6.60
2023-01-18T00:05:42.635Z,6.50
2023-01-18T00:08:19.008Z,6.40
2023-01-18T00:10:45.842Z,6.40
2023-01-18T00:13:12.877Z,6.40
2023-01-18T00:15:39.657Z,6.30
2023-01-18T00:18:07.290Z,6.20
2023-01-18T00:20:34.126Z,6.30
2023-01-18T00:23:01.901Z,6.40
2023-01-18T00:25:30.059Z,6.50
2023-01-18T00:27:57.137Z,6.50
2023-01-18T00:30:27.089Z,6.40
2023-01-18T00:32:57.300Z,6.40
2023-01-18T00:35:25.023Z,6.40
2023-01-18T00:37:52.793Z,6.40
2023-01-18T00:40:20.901Z,6.30
2023-01-18T00:43:06.107Z,6.30
2023-01-18T00:45:32.920Z,6.30
2023-01-18T00:47:59.665Z,6.30
2023-01-18T00:50:26.456Z,6.20
2023-01-18T00:52:57.113Z,6.20
2023-01-18T00:55:24.355Z,6.20
2023-01-18T00:57:51.414Z,6.20
2023-01-18T01:00:19.064Z,6.10
2023-01-18T01:02:46.480Z,6.20
2023-01-18T01:05:37.816Z,6.10
2023-01-18T01:08:05.945Z,6.20
2023-01-18T01:10:35.634Z,6.10
2023-01-18T01:13:21.257Z,6.10
2023-01-18T01:16:06.877Z,6.10
2023-01-18T01:18:52.486Z,6.10
2023-01-18T01:21:37.894Z,6.10
2023-01-18T01:24:23.534Z,6.10
2023-01-18T01:26:50.284Z,6.10
2023-01-18T01:29:17.556Z,6.10
2023-01-18T01:31:44.267Z,6.10
2023-01-18T01:34:11.078Z,6.20
2023-01-18T01:36:37.925Z,6.20
2023-01-18T01:39:07.066Z,6.20
2023-01-18T01:41:35.580Z,6.20
2023-01-18T01:44:28.047Z,6.20
2023-01-18T01:47:09.530Z,6.20
2023-01-18T01:49:50.367Z,6.20
2023-01-18T01:52:22.959Z,6.20
2023-01-18T01:55:21.302Z,6.20
2023-01-18T01:57:54.479Z,6.20
2023-01-18T02:00:24.410Z,6.20
2023-01-18T02:03:02.226Z,6.20
2023-01-18T02:05:31.033Z,6.20
2023-01-18T02:08:01.136Z,6.30
2023-01-18T02:10:29.591Z,6.30
2023-01-18T02:12:59.263Z,6.20
2023-01-18T02:15:36.172Z,6.30
2023-01-18T02:18:17.864Z,6.20
2023-01-18T02:20:59.738Z,6.20
2023-01-18T02:23:45.968Z,6.10
2023-01-18T02:26:46.048Z,6.20
2023-01-18T02:29:38.026Z,6.20
2023-01-18T02:32:32.668Z,6.20
2023-01-18T02:35:14.104Z,6.20
2023-01-18T02:37:55.981Z,6.30
2023-01-18T02:40:48.628Z,6.30
2023-01-18T02:43:36.813Z,6.20
2023-01-18T02:46:24.617Z,6.20
2023-01-18T02:48:52.081Z,6.20
2023-01-18T02:51:18.897Z,6.20
2023-01-18T02:53:47.032Z,6.30
2023-01-18T02:56:15.909Z,6.20
2023-01-18T02:58:47.812Z,6.20
2023-01-18T03:01:26.825Z,6.20
2023-01-18T03:03:58.855Z,6.20
2023-01-18T03:06:29.710Z,6.20
2023-01-18T03:08:58.607Z,6.20
2023-01-18T03:11:39.814Z,6.30
2023-01-18T03:14:17.812Z,6.30
2023-01-18T03:16:58.064Z,6.30
2023-01-18T03:20:07.420Z,6.30
2023-01-18T03:23:00.372Z,6.30
2023-01-18T03:25:34.776Z,6.30
2023-01-18T03:28:24.779Z,6.30
2023-01-18T03:31:12.857Z,6.30
2023-01-18T03:33:47.178Z,6.40
2023-01-18T03:36:30.664Z,6.30
2023-01-18T03:39:03.470Z,6.30
2023-01-18T03:41:35.993Z,6.30
2023-01-18T03:44:10.876Z,6.30
2023-01-18T03:46:39.656Z,6.30
2023-01-18T03:49:07.671Z,6.30
2023-01-18T03:51:58.665Z,6.30
2023-01-18T03:54:42.522Z,6.30
2023-01-18T03:57:27.857Z,6.30
2023-01-18T03:59:55.158Z,6.40
2023-01-18T04:02:24.205Z,6.40
2023-01-18T04:04:57.302Z,6.40
2023-01-18T04:07:27.199Z,6.30
2023-01-18T04:09:54.064Z,6.30
2023-01-18T04:12:20.844Z,6.40
2023-01-18T04:14:47.612Z,6.30
2023-01-18T04:17:14.623Z,6.40
2023-01-18T04:19:41.617Z,6.40
2023-01-18T04:22:09.849Z,6.40
2023-01-18T04:24:36.781Z,6.40
2023-01-18T04:27:04.323Z,6.40
2023-01-18T04:29:31.311Z,6.40
2023-01-18T04:31:58.112Z,6.40
2023-01-18T04:34:25.029Z,6.40
2023-01-18T04:36:52.408Z,6.40
2023-01-18T04:39:19.620Z,6.30
2023-01-18T04:41:46.537Z,6.40
2023-01-18T04:44:13.442Z,6.30
2023-01-18T04:46:40.350Z,6.40
2023-01-18T04:49:10.498Z,6.40
2023-01-18T04:51:38.258Z,6.40
2023-01-18T04:54:05.114Z,6.50
2023-01-18T04:56:31.910Z,6.40
2023-01-18T04:58:58.701Z,6.40
2023-01-18T05:01:25.573Z,6.40
2023-01-18T05:03:56.550Z,6.40
2023-01-18T05:06:24.573Z,6.40
2023-01-18T05:08:52.529Z,6.50
2023-01-18T05:11:23.180Z,6.50
2023-01-18T05:13:50.014Z,6.50
2023-01-18T05:16:19.952Z,6.50
2023-01-18T05:18:47.395Z,6.50
2023-01-18T05:21:14.773Z,6.50
2023-01-18T05:23:42.118Z,6.50
2023-01-18T05:26:15.778Z,6.60
2023-01-18T05:28:43.084Z,6.60
2023-01-18T05:31:09.925Z,6.60
2023-01-18T05:33:36.883Z,6.60
2023-01-18T05:36:03.799Z,6.60
2023-01-18T05:38:30.684Z,6.70
2023-01-18T05:40:57.668Z,6.70
2023-01-18T05:43:27.350Z,6.70
2023-01-18T05:45:54.311Z,6.80
2023-01-18T05:48:21.283Z,6.80
2023-01-18T05:50:48.972Z,6.80
2023-01-18T05:53:18.360Z,6.80
2023-01-18T05:55:53.218Z,6.80
2023-01-18T05:58:20.203Z,6.90
2023-01-18T06:00:46.966Z,6.90
2023-01-18T06:03:13.911Z,6.90
2023-01-18T06:05:40.756Z,6.90
2023-01-18T06:08:07.476Z,6.90
2023-01-18T06:10:34.252Z,7.00
2023-01-18T06:13:01.259Z,7.00
2023-01-18T06:15:28.196Z,7.00
2023-01-18T06:17:55.026Z,7.00
2023-01-18T06:20:21.797Z,7.10
2023-01-18T06:22:48.602Z,7.10
2023-01-18T06:25:15.432Z,7.20
2023-01-18T06:27:42.400Z,7.20
2023-01-18T06:30:11.079Z,7.20
2023-01-18T06:32:37.881Z,7.20
2023-01-18T06:35:05.058Z,7.20
2023-01-18T06:37:31.834Z,7.30
2023-01-18T06:39:59.499Z,7.30
2023-01-18T06:42:27.497Z,7.30
2023-01-18T06:44:54.223Z,7.30
2023-01-18T06:47:21.138Z,7.30
2023-01-18T06:49:48.264Z,7.30
2023-01-18T06:52:16.021Z,7.30
2023-01-18T06:54:42.850Z,7.30
2023-01-18T06:57:09.593Z,7.40
2023-01-18T06:59:36.369Z,7.40
2023-01-18T07:02:04.648Z,7.50
2023-01-18T07:04:38.011Z,7.50
2023-01-18T07:07:04.777Z,7.50
2023-01-18T07:09:31.626Z,7.50
2023-01-18T07:11:58.413Z,7.60
2023-01-18T07:14:25.334Z,7.50
2023-01-18T07:16:52.169Z,7.60
2023-01-18T07:19:19.039Z,7.60
2023-01-18T07:21:46.014Z,7.60
2023-01-18T07:24:12.794Z,7.70
2023-01-18T07:26:39.569Z,7.70
2023-01-18T07:29:06.469Z,7.60
2023-01-18T07:31:33.278Z,7.60
2023-01-18T07:34:00.120Z,7.60
2023-01-18T07:36:26.966Z,7.60
2023-01-18T07:38:53.782Z,7.60
2023-01-18T07:41:22.111Z,7.60
2023-01-18T07:43:49.248Z,7.70
2023-01-18T07:46:20.713Z,7.60
2023-01-18T07:48:48.454Z,7.60
2023-01-18T07:51:15.640Z,7.60
2023-01-18T07:53:42.463Z,7.70
2023-01-18T07:56:13.772Z,7.80
2023-01-18T07:58:40.609Z,7.70
2023-01-18T08:01:10.170Z,7.70
2023-01-18T08:03:37.948Z,7.80
2023-01-18T08:06:07.307Z,7.80
2023-01-18T08:08:35.498Z,7.80
2023-01-18T08:11:04.849Z,7.80
2023-01-18T08:13:31.744Z,7.80
2023-01-18T08:16:03.995Z,7.80
2023-01-18T08:18:31.007Z,8.00
2023-01-18T08:20:58.129Z,7.90
2023-01-18T08:23:24.938Z,8.00
2023-01-18T08:25:51.950Z,8.00
2023-01-18T08:28:19.619Z,8.00
2023-01-18T08:30:48.756Z,8.10
2023-01-18T08:33:15.866Z,8.10
2023-01-18T08:35:45.339Z,8.10
2023-01-18T08:38:13.585Z,8.10
2023-01-18T08:40:40.653Z,8.10
2023-01-18T08:43:10.754Z,8.20
2023-01-18T08:45:37.700Z,8.20
2023-01-18T08:48:10.868Z,8.30
2023-01-18T08:50:39.166Z,8.30
2023-01-18T08:53:06.005Z,8.30
2023-01-18T08:55:34.100Z,8.30
2023-01-18T08:58:00.889Z,8.40
2023-01-18T09:00:31.117Z,8.40
2023-01-18T09:02:59.105Z,8.40
2023-01-18T09:05:27.112Z,8.40
2023-01-18T09:07:55.291Z,8.40
2023-01-18T09:10:22.826Z,8.40
2023-01-18T09:12:51.587Z,8.50
2023-01-18T09:15:19.562Z,8.50
2023-01-18T09:17:46.394Z,8.50
2023-01-18T09:20:13.430Z,8.50
2023-01-18T09:22:40.313Z,8.50
2023-01-18T09:25:07.245Z,8.50
2023-01-18T09:27:34.158Z,8.60
2023-01-18T09:30:00.988Z,8.60
2023-01-18T09:32:27.811Z,8.60
2023-01-18T09:34:55.685Z,8.60
2023-01-18T09:37:22.625Z,8.60
2023-01-18T09:39:52.905Z,8.70
2023-01-18T09:42:27.372Z,8.70
2023-01-18T09:44:59.733Z,8.70
2023-01-18T09:47:34.476Z,8.70
2023-01-18T09:50:19.041Z,8.70
2023-01-18T09:53:08.016Z,8.70
2023-01-18T09:56:16.982Z,8.70
2023-01-18T09:58:52.359Z,8.70
2023-01-18T10:01:23.520Z,8.80
2023-01-18T10:03:58.160Z,8.80
2023-01-18T10:06:29.694Z,8.70
2023-01-18T10:09:06.296Z,8.70
2023-01-18T10:11:44.731Z,8.80
2023-01-18T10:14:43.477Z,8.80
2023-01-18T10:17:20.792Z,8.80
2023-01-18T10:19:47.915Z,8.80
2023-01-18T10:22:32.753Z,8.80
2023-01-18T10:25:31.953Z,8.80
2023-01-18T10:28:11.263Z,8.80
2023-01-18T10:30:38.049Z,8.80
2023-01-18T10:33:17.165Z,8.90
2023-01-18T10:35:49.132Z,8.90
2023-01-18T10:38:23.165Z,8.90
2023-01-18T10:40:59.672Z,8.90
2023-01-18T10:43:28.715Z,8.90
2023-01-18T10:45:56.500Z,9.00
2023-01-18T10:48:31.055Z,9.00
2023-01-18T10:51:00.780Z,9.10
2023-01-18T10:53:39.044Z,9.10
2023-01-18T10:56:20.970Z,9.10
2023-01-18T10:58:50.866Z,9.10
2023-01-18T11:01:24.691Z,9.10
2023-01-18T11:03:55.370Z,9.20
2023-01-18T11:06:24.464Z,9.20
2023-01-18T11:08:52.165Z,9.20
2023-01-18T11:11:49.398Z,9.20
2023-01-18T11:14:29.066Z,9.20
2023-01-18T11:16:59.971Z,9.30
2023-01-18T11:19:26.879Z,9.30
2023-01-18T11:21:54.623Z,9.30
2023-01-18T11:24:27.853Z,9.50
2023-01-18T11:27:04.207Z,9.50
2023-01-18T11:29:42.878Z,9.50
2023-01-18T11:32:26.932Z,9.60
2023-01-18T11:34:56.798Z,9.60
2023-01-18T11:37:29.623Z,9.70
2023-01-18T11:39:57.101Z,9.70
2023-01-18T11:42:34.382Z,9.80
2023-01-18T11:45:24.578Z,9.90
2023-01-18T11:47:58.151Z,9.90
2023-01-18T11:50:45.739Z,10.00
2023-01-18T11:53:46.879Z,9.90
2023-01-18T11:56:41.620Z,9.90
2023-01-18T11:59:24.785Z,10.00
2023-01-18T12:02:25.413Z,10.10
2023-01-18T12:05:28.197Z,10.10
2023-01-18T12:08:26.988Z,10.10
2023-01-18T12:11:02.356Z,10.10
2023-01-18T12:13:47.261Z,10.20
2023-01-18T12:16:21.142Z,10.20
2023-01-18T12:18:48.000Z,10.20
2023-01-18T12:21:37.357Z,10.20
2023-01-18T12:24:13.972Z,10.20
2023-01-18T12:26:50.342Z,10.30
2023-01-18T12:29:37.704Z,10.30
2023-01-18T12:32:28.229Z,10.30
2023-01-18T12:35:24.140Z,10.30
2023-01-18T12:37:51.160Z,10.30
2023-01-18T12:40:36.662Z,10.30
2023-01-18T12:43:48.293Z,10.30
2023-01-18T12:46:30.137Z,10.30
2023-01-18T12:49:02.152Z,10.40
2023-01-18T12:51:34.141Z,10.40
2023-01-18T12:54:13.441Z,10.40
2023-01-18T12:56:44.286Z,10.30
2023-01-18T12:59:30.547Z,10.30
2023-01-18T13:02:18.282Z,10.30
2023-01-18T13:04:59.506Z,10.40
2023-01-18T13:07:36.044Z,10.40
2023-01-18T13:10:04.311Z,10.40
2023-01-18T13:12:32.016Z,10.40
2023-01-18T13:15:19.353Z,10.40
2023-01-18T13:17:55.833Z,10.30
2023-01-18T13:20:41.767Z,10.40
2023-01-18T13:23:31.731Z,10.30
2023-01-18T13:26:28.505Z,10.30
2023-01-18T13:29:13.980Z,10.40
2023-01-18T13:31:40.832Z,10.40
2023-01-18T13:34:30.146Z,10.40
2023-01-18T13:37:13.539Z,10.40
2023-01-18T13:39:47.114Z,10.40
2023-01-18T13:42:13.792Z,10.40
2023-01-18T13:44:45.905Z,10.40
2023-01-18T13:47:51.716Z,10.40
2023-01-18T13:50:39.943Z,10.50
2023-01-18T13:53:09.657Z,10.50
2023-01-18T13:55:36.885Z,10.50
2023-01-18T13:58:03.859Z,10.50
2023-01-18T14:00:32.257Z,10.50
2023-01-18T14:03:15.837Z,10.50
2023-01-18T14:05:45.061Z,10.50
2023-01-18T14:08:24.615Z,10.50
2023-01-18T14:10:56.565Z,10.50
2023-01-18T14:13:50.196Z,10.50
2023-01-18T14:16:23.011Z,10.50
2023-01-18T14:19:09.762Z,10.50
2023-01-18T14:22:00.410Z,10.50
2023-01-18T14:24:45.232Z,10.60
2023-01-18T14:27:20.021Z,10.60
2023-01-18T14:29:52.194Z,10.50
2023-01-18T14:32:23.467Z,10.50
2023-01-18T14:35:18.517Z,10.60
2023-01-18T14:37:45.327Z,10.60
2023-01-18T14:40:27.852Z,10.60
2023-01-18T14:43:06.775Z,10.50
2023-01-18T14:45:37.622Z,10.60
2023-01-18T14:48:22.833Z,10.60
2023-01-18T14:50:52.721Z,10.60
2023-01-18T14:53:24.277Z,10.60
2023-01-18T14:56:16.406Z,10.60
2023-01-18T14:58:51.739Z,10.60
2023-01-18T15:01:39.107Z,10.60
2023-01-18T15:04:27.627Z,10.70
2023-01-18T15:06:54.315Z,10.60
2023-01-18T15:09:23.181Z,10.60
2023-01-18T15:11:52.284Z,10.60
2023-01-18T15:14:23.521Z,10.60
2023-01-18T15:16:53.594Z,10.60
2023-01-18T15:19:32.088Z,10.60
2023-01-18T15:22:04.271Z,10.60
2023-01-18T15:24:38.228Z,10.70
2023-01-18T15:27:05.740Z,10.60
2023-01-18T15:29:35.395Z,10.70
2023-01-18T15:32:13.094Z,10.60
2023-01-18T15:34:44.893Z,10.60
2023-01-18T15:37:26.128Z,10.70
2023-01-18T15:40:04.094Z,10.70
2023-01-18T15:42:45.605Z,10.70
2023-01-18T15:45:33.812Z,10.70
2023-01-18T15:48:23.033Z,10.70
2023-01-18T15:50:55.672Z,10.60
2023-01-18T15:53:37.671Z,10.60
2023-01-18T15:56:08.597Z,10.60
2023-01-18T15:58:41.311Z,10.60
2023-01-18T16:01:20.405Z,10.60
2023-01-18T16:03:50.256Z,10.60
2023-01-18T16:06:32.297Z,10.70
2023-01-18T16:09:12.866Z,10.60
2023-01-18T16:11:56.438Z,10.60
2023-01-18T16:14:30.902Z,10.60
2023-01-18T16:17:00.497Z,10.50
2023-01-18T16:19:45.843Z,10.50
2023-01-18T16:22:29.277Z,10.60
2023-01-18T16:25:31.900Z,10.60
2023-01-18T16:28:00.304Z,10.60
2023-01-18T16:30:39.263Z,10.60
2023-01-18T16:33:09.306Z,10.60
2023-01-18T16:35:39.788Z,10.60
2023-01-18T16:38:14.017Z,10.50
2023-01-18T16:40:43.988Z,10.60
2023-01-18T16:43:22.303Z,10.60
2023-01-18T16:45:52.687Z,10.60
2023-01-18T16:48:24.756Z,10.60
2023-01-18T16:50:52.027Z,10.50
2023-01-18T16:53:19.385Z,10.50
2023-01-18T16:55:48.209Z,10.50
2023-01-18T16:58:17.032Z,10.50
2023-01-18T17:00:53.613Z,10.60
2023-01-18T17:03:20.605Z,10.60
2023-01-18T17:05:47.599Z,10.60
2023-01-18T17:08:14.967Z,10.60
2023-01-18T17:10:44.846Z,10.60
2023-01-18T17:13:11.668Z,10.60
2023-01-18T17:15:41.760Z,10.60
2023-01-18T17:18:25.766Z,10.60
2023-01-18T17:20:53.708Z,10.60
2023-01-18T17:23:20.913Z,10.60
2023-01-18T17:25:47.857Z,10.60
2023-01-18T17:28:17.121Z,10.60
2023-01-18T17:30:46.216Z,10.60
2023-01-18T17:33:20.500Z,10.60
2023-01-18T17:35:49.041Z,10.50
2023-01-18T17:38:24.223Z,10.60
2023-01-18T17:40:52.659Z,10.60
2023-01-18T17:43:32.980Z,10.60
2023-01-18T17:46:05.382Z,10.60
2023-01-18T17:48:32.315Z,10.60
2023-01-18T17:50:59.325Z,10.60
2023-01-18T17:53:26.353Z,10.60
2023-01-18T17:55:53.307Z,10.60
2023-01-18T17:58:20.066Z,10.60
2023-01-18T18:00:47.356Z,10.60
2023-01-18T18:03:14.271Z,10.60
2023-01-18T18:05:41.205Z,10.60
2023-01-18T18:08:09.679Z,10.60
2023-01-18T18:10:36.567Z,10.60
2023-01-18T18:13:03.886Z,10.50
2023-01-18T18:15:30.860Z,10.50
2023-01-18T18:17:57.702Z,10.50
2023-01-18T18:20:24.754Z,10.50
2023-01-18T18:22:51.575Z,10.50
2023-01-18T18:25:18.547Z,10.50
2023-01-18T18:27:46.808Z,10.40
2023-01-18T18:30:14.693Z,10.50
2023-01-18T18:32:41.644Z,10.60
2023-01-18T18:35:23.961Z,10.60
2023-01-18T18:37:52.323Z,10.60
2023-01-18T18:40:20.048Z,10.60
2023-01-18T18:43:00.720Z,10.70
2023-01-18T18:45:33.000Z,10.60
2023-01-18T18:48:01.074Z,10.70
2023-01-18T18:50:28.770Z,10.60
2023-01-18T18:52:55.994Z,10.60
2023-01-18T18:55:23.105Z,10.60
2023-01-18T18:57:49.978Z,10.60
2023-01-18T19:00:17.439Z,10.60
2023-01-18T19:02:44.328Z,10.60
2023-01-18T19:05:12.061Z,10.60
2023-01-18T19:07:38.957Z,10.50
2023-01-18T19:10:06.941Z,10.50
2023-01-18T19:12:33.767Z,10.50
2023-01-18T19:15:00.804Z,10.50
2023-01-18T19:17:31.561Z,10.40
2023-01-18T19:19:58.869Z,10.50
2023-01-18T19:22:26.039Z,10.40
2023-01-18T19:24:53.010Z,10.40
2023-01-18T19:27:21.277Z,10.30
2023-01-18T19:29:48.323Z,10.30
2023-01-18T19:32:15.519Z,10.30
2023-01-18T19:34:42.245Z,10.30
2023-01-18T19:37:09.254Z,10.20
2023-01-18T19:39:36.218Z,10.20
2023-01-18T19:42:03.173Z,10.20
2023-01-18T19:44:30.112Z,10.20
2023-01-18T19:46:57.297Z,10.10
2023-01-18T19:49:27.972Z,10.10
2023-01-18T19:51:55.819Z,10.00
2023-01-18T19:54:22.744Z,10.00
2023-01-18T19:56:49.636Z,10.00
2023-01-18T19:59:16.621Z,10.00
2023-01-18T20:01:44.848Z,10.00
2023-01-18T20:04:13.420Z,9.90
2023-01-18T20:06:43.478Z,9.90
2023-01-18T20:09:19.417Z,9.90
2023-01-18T20:11:48.275Z,9.90
2023-01-18T20:14:15.108Z,9.90
2023-01-18T20:16:43.327Z,9.80
2023-01-18T20:19:20.316Z,9.80
2023-01-18T20:21:47.262Z,9.80
2023-01-18T20:24:14.199Z,9.60
2023-01-18T20:26:42.080Z,9.60
2023-01-18T20:29:09.570Z,9.60
2023-01-18T20:31:37.953Z,9.60
2023-01-18T20:34:05.675Z,9.60
2023-01-18T20:36:34.972Z,9.60
2023-01-18T20:39:02.705Z,9.50
2023-01-18T20:41:29.472Z,9.60
2023-01-18T20:43:56.266Z,9.50
2023-01-18T20:46:23.220Z,9.40
2023-01-18T20:48:50.061Z,9.40
2023-01-18T20:51:17.905Z,9.40
2023-01-18T20:53:44.783Z,9.30
2023-01-18T20:56:27.870Z,9.30
2023-01-18T20:58:55.566Z,9.30
2023-01-18T21:01:22.569Z,9.30
2023-01-18T21:03:54.383Z,9.30
2023-01-18T21:06:21.231Z,9.20
2023-01-18T21:08:48.014Z,9.20
2023-01-18T21:11:16.850Z,9.20
2023-01-18T21:13:44.227Z,9.20
2023-01-18T21:16:11.209Z,9.20
2023-01-18T21:18:39.444Z,9.20
2023-01-18T21:21:06.410Z,9.10
2023-01-18T21:23:39.348Z,9.10
2023-01-18T21:26:09.246Z,9.10
2023-01-18T21:28:36.350Z,9.20
2023-01-18T21:31:04.016Z,9.10
2023-01-18T21:33:31.615Z,9.10
2023-01-18T21:36:04.170Z,9.00
2023-01-18T21:38:31.133Z,9.00
2023-01-18T21:41:18.128Z,8.90
2023-01-18T21:44:03.502Z,8.90
2023-01-18T21:46:30.355Z,8.90
2023-01-18T21:48:57.211Z,8.90
2023-01-18T21:51:42.741Z,8.90
2023-01-18T21:54:16.900Z,8.80
2023-01-18T21:56:45.250Z,8.80
2023-01-18T21:59:13.357Z,8.80
2023-01-18T22:01:43.255Z,8.70
2023-01-18T22:04:31.432Z,8.70
2023-01-18T22:06:59.453Z,8.60
2023-01-18T22:09:28.040Z,8.60
2023-01-18T22:11:58.589Z,8.50
2023-01-18T22:14:26.018Z,8.60
2023-01-18T22:16:53.413Z,8.60
2023-01-18T22:19:20.382Z,8.50
2023-01-18T22:21:48.071Z,8.60
2023-01-18T22:24:15.963Z,8.60
2023-01-18T22:26:43.554Z,8.50
2023-01-18T22:29:10.859Z,8.50
2023-01-18T22:31:37.687Z,8.60
2023-01-18T22:34:05.595Z,8.60
2023-01-18T22:36:33.288Z,8.60
2023-01-18T22:39:00.493Z,8.60
2023-01-18T22:41:28.831Z,8.50
2023-01-18T22:43:56.227Z,8.40
2023-01-18T22:46:24.072Z,8.40
2023-01-18T22:48:51.415Z,8.50
2023-01-18T22:51:23.554Z,8.40
2023-01-18T22:53:50.884Z,8.40
2023-01-18T22:56:23.237Z,8.40
2023-01-18T22:58:51.178Z,8.40
2023-01-18T23:01:24.987Z,8.30
2023-01-18T23:03:53.442Z,8.30
2023-01-18T23:06:21.016Z,8.20
2023-01-18T23:08:48.083Z,8.20
2023-01-18T23:11:21.815Z,8.20
2023-01-18T23:14:10.077Z,8.20
2023-01-18T23:16:55.662Z,8.20
2023-01-18T23:19:24.202Z,8.20
2023-01-18T23:21:51.747Z,8.20
2023-01-18T23:24:20.781Z,8.20
2023-01-18T23:26:48.030Z,8.10
2023-01-18T23:29:15.514Z,8.10
2023-01-18T23:31:42.495Z,8.10
2023-01-18T23:34:09.950Z,8.10
2023-01-18T23:36:36.825Z,8.10
2023-01-18T23:39:22.447Z,8.10
2023-01-18T23:42:07.965Z,8.20
2023-01-18T23:44:53.431Z,8.20
2023-01-18T23:47:39.049Z,8.20
2023-01-18T23:50:24.770Z,8.20
2023-01-18T23:53:10.308Z,8.20
2023-01-18T23:55:37.089Z,8.10
2023-01-18T23:58:03.912Z,8.10
